NKS826 MHLM-KFLL
Flight info
| Callsign | NKS826 |
|---|---|
| Flight time | N/A |
| Altitude | 35000 |
| Route | KIRAP1 KIRAP UG521 CZM UB879 CUN UM219 XOPGI UB646 CANOA BHHIA3 |
| Aircraft | A321/M-SDE3FGHIRWY/LB1 |
Departure
| Time | N/A |
|---|---|
| Airport | Ramón Villeda Morales International Airport (MHLM) |
Arrival
| Time | 2026-05-04 03:40 |
|---|---|
| Airport | Fort Lauderdale Hollywood International Airport (KFLL) |
| Time | Latitude | Longitude | Altitude | Speed | Heading |
|---|---|---|---|---|---|
| 2026-05-04 02:47 | 22.92035 | -85.39361 | 35061 ft | 512 kts | 59° |
| 2026-05-04 02:47 | 22.93667 | -85.35925 | 35056 ft | 512 kts | 59° |
| 2026-05-04 02:48 | 22.96931 | -85.29052 | 35065 ft | 513 kts | 59° |
| 2026-05-04 02:48 | 23.00194 | -85.22173 | 35066 ft | 513 kts | 59° |
| 2026-05-04 02:49 | 23.03451 | -85.15286 | 35098 ft | 513 kts | 59° |
| 2026-05-04 02:49 | 23.06711 | -85.08374 | 35062 ft | 515 kts | 59° |
| 2026-05-04 02:50 | 23.09975 | -85.01444 | 35057 ft | 516 kts | 59° |
| 2026-05-04 02:50 | 23.13248 | -84.94502 | 35058 ft | 516 kts | 59° |
| 2026-05-04 02:51 | 23.16517 | -84.87554 | 35064 ft | 517 kts | 60° |
| 2026-05-04 02:51 | 23.19785 | -84.80595 | 35063 ft | 517 kts | 60° |
| 2026-05-04 02:52 | 23.23042 | -84.73629 | 35066 ft | 517 kts | 60° |
| 2026-05-04 02:52 | 23.26278 | -84.66638 | 35063 ft | 518 kts | 60° |
| 2026-05-04 02:53 | 23.29507 | -84.59644 | 35070 ft | 518 kts | 60° |
| 2026-05-04 02:53 | 23.32745 | -84.52651 | 35072 ft | 517 kts | 60° |
| 2026-05-04 02:54 | 23.35978 | -84.45653 | 35077 ft | 518 kts | 60° |
| 2026-05-04 02:54 | 23.39223 | -84.38641 | 35070 ft | 519 kts | 60° |
| 2026-05-04 02:55 | 23.44083 | -84.28085 | 35071 ft | 520 kts | 60° |
| 2026-05-04 02:56 | 23.47308 | -84.21040 | 35070 ft | 520 kts | 60° |
| 2026-05-04 02:56 | 23.50550 | -84.13998 | 35069 ft | 520 kts | 60° |
| 2026-05-04 02:57 | 23.53793 | -84.06959 | 35068 ft | 520 kts | 60° |
| 2026-05-04 02:57 | 23.56996 | -83.99956 | 35068 ft | 520 kts | 60° |
| 2026-05-04 02:58 | 23.60213 | -83.92897 | 35068 ft | 520 kts | 60° |
| 2026-05-04 02:58 | 23.63457 | -83.85792 | 35098 ft | 520 kts | 60° |
| 2026-05-04 02:59 | 23.66660 | -83.78764 | 35074 ft | 521 kts | 60° |
| 2026-05-04 02:59 | 23.69891 | -83.71676 | 35068 ft | 522 kts | 60° |
| 2026-05-04 03:00 | 23.73123 | -83.64571 | 35067 ft | 523 kts | 60° |
| 2026-05-04 03:00 | 23.76352 | -83.57458 | 35069 ft | 523 kts | 60° |
| 2026-05-04 03:01 | 23.79584 | -83.50336 | 35066 ft | 523 kts | 61° |
| 2026-05-04 03:01 | 23.82804 | -83.43210 | 35078 ft | 523 kts | 61° |
| 2026-05-04 03:02 | 23.86013 | -83.36091 | 35081 ft | 522 kts | 61° |
| 2026-05-04 03:02 | 23.89220 | -83.28978 | 35080 ft | 522 kts | 61° |
| 2026-05-04 03:03 | 23.92429 | -83.21859 | 35112 ft | 522 kts | 61° |
| 2026-05-04 03:03 | 23.95098 | -83.15933 | 35056 ft | 523 kts | 61° |
| 2026-05-04 03:04 | 23.98314 | -83.08784 | 35057 ft | 524 kts | 62° |
| 2026-05-04 03:04 | 24.01522 | -83.01624 | 35070 ft | 524 kts | 62° |
| 2026-05-04 03:05 | 24.04719 | -82.94450 | 35077 ft | 525 kts | 62° |
| 2026-05-04 03:05 | 24.07912 | -82.87270 | 35081 ft | 525 kts | 62° |
| 2026-05-04 03:06 | 24.11112 | -82.80082 | 35082 ft | 525 kts | 62° |
| 2026-05-04 03:06 | 24.14307 | -82.72900 | 35080 ft | 525 kts | 62° |
| 2026-05-04 03:07 | 24.17489 | -82.65714 | 35082 ft | 524 kts | 62° |
| 2026-05-04 03:07 | 24.20670 | -82.58536 | 35118 ft | 523 kts | 62° |
| 2026-05-04 03:08 | 24.23852 | -82.51350 | 35048 ft | 524 kts | 62° |
| 2026-05-04 03:08 | 24.27022 | -82.44144 | 35049 ft | 526 kts | 62° |
| 2026-05-04 03:09 | 24.30198 | -82.36919 | 35057 ft | 526 kts | 62° |
| 2026-05-04 03:09 | 24.33373 | -82.29709 | 35078 ft | 525 kts | 62° |
| 2026-05-04 03:10 | 24.36543 | -82.22500 | 35085 ft | 524 kts | 62° |
| 2026-05-04 03:10 | 24.39707 | -82.15299 | 35028 ft | 524 kts | 62° |
| 2026-05-04 03:10 | 24.41289 | -82.11695 | 34136 ft | 526 kts | 63° |
| 2026-05-04 03:11 | 24.42858 | -82.08109 | 33553 ft | 515 kts | 63° |
| 2026-05-04 03:11 | 24.44400 | -82.04572 | 32988 ft | 513 kts | 63° |
| 2026-05-04 03:11 | 24.45940 | -82.01042 | 32426 ft | 512 kts | 61° |
| 2026-05-04 03:11 | 24.47737 | -81.97716 | 31862 ft | 501 kts | 50° |
| 2026-05-04 03:12 | 24.49930 | -81.94827 | 31420 ft | 485 kts | 40° |
| 2026-05-04 03:12 | 24.52403 | -81.92408 | 30957 ft | 469 kts | 31° |
| 2026-05-04 03:12 | 24.54968 | -81.90248 | 30527 ft | 462 kts | 31° |
| 2026-05-04 03:12 | 24.57508 | -81.88099 | 30075 ft | 460 kts | 31° |
| 2026-05-04 03:13 | 24.60031 | -81.85956 | 29610 ft | 456 kts | 32° |
| 2026-05-04 03:13 | 24.62525 | -81.83831 | 29189 ft | 451 kts | 32° |
| 2026-05-04 03:13 | 24.64994 | -81.81725 | 28774 ft | 447 kts | 32° |
| 2026-05-04 03:13 | 24.67440 | -81.79640 | 28371 ft | 443 kts | 32° |
| 2026-05-04 03:14 | 24.69868 | -81.77576 | 27964 ft | 439 kts | 32° |
| 2026-05-04 03:14 | 24.72275 | -81.75525 | 27562 ft | 436 kts | 32° |
| 2026-05-04 03:14 | 24.74631 | -81.73505 | 27170 ft | 434 kts | 32° |
| 2026-05-04 03:14 | 24.77030 | -81.71438 | 26769 ft | 431 kts | 32° |
| 2026-05-04 03:15 | 24.79385 | -81.69400 | 26385 ft | 430 kts | 32° |
| 2026-05-04 03:15 | 24.81728 | -81.67369 | 25971 ft | 428 kts | 33° |
| 2026-05-04 03:15 | 24.84062 | -81.65345 | 25549 ft | 426 kts | 33° |
| 2026-05-04 03:15 | 24.86384 | -81.63335 | 25159 ft | 424 kts | 33° |
| 2026-05-04 03:16 | 24.88696 | -81.61333 | 24736 ft | 422 kts | 33° |
| 2026-05-04 03:16 | 24.91002 | -81.59342 | 24327 ft | 421 kts | 33° |
| 2026-05-04 03:16 | 24.93302 | -81.57357 | 23906 ft | 420 kts | 33° |
| 2026-05-04 03:16 | 24.95598 | -81.55375 | 23446 ft | 419 kts | 33° |
| 2026-05-04 03:17 | 24.97883 | -81.53399 | 23000 ft | 416 kts | 34° |
| 2026-05-04 03:17 | 25.00148 | -81.51434 | 22567 ft | 413 kts | 34° |
| 2026-05-04 03:17 | 25.02395 | -81.49478 | 22146 ft | 410 kts | 34° |
| 2026-05-04 03:17 | 25.04623 | -81.47538 | 21710 ft | 407 kts | 34° |
| 2026-05-04 03:18 | 25.06835 | -81.45612 | 21288 ft | 404 kts | 34° |
| 2026-05-04 03:18 | 25.09034 | -81.43702 | 20885 ft | 401 kts | 34° |
| 2026-05-04 03:18 | 25.11222 | -81.41806 | 20429 ft | 398 kts | 34° |
| 2026-05-04 03:18 | 25.13381 | -81.39934 | 20013 ft | 391 kts | 34° |
| 2026-05-04 03:19 | 25.15501 | -81.38093 | 19596 ft | 385 kts | 34° |
| 2026-05-04 03:19 | 25.17584 | -81.36279 | 19189 ft | 378 kts | 34° |
| 2026-05-04 03:19 | 25.19633 | -81.34492 | 18786 ft | 373 kts | 34° |
| 2026-05-04 03:19 | 25.21657 | -81.32725 | 18389 ft | 368 kts | 34° |
| 2026-05-04 03:20 | 25.23645 | -81.30976 | 17956 ft | 363 kts | 35° |
| 2026-05-04 03:20 | 25.25584 | -81.29223 | 17560 ft | 357 kts | 36° |
| 2026-05-04 03:20 | 25.27476 | -81.27483 | 17185 ft | 351 kts | 36° |
| 2026-05-04 03:20 | 25.29335 | -81.25760 | 16800 ft | 346 kts | 36° |
| 2026-05-04 03:21 | 25.31168 | -81.24065 | 16390 ft | 342 kts | 36° |
| 2026-05-04 03:21 | 25.32986 | -81.22395 | 16000 ft | 338 kts | 36° |
| 2026-05-04 03:21 | 25.34790 | -81.20746 | 15633 ft | 335 kts | 36° |
| 2026-05-04 03:21 | 25.36582 | -81.19109 | 15269 ft | 333 kts | 36° |
| 2026-05-04 03:22 | 25.38361 | -81.17479 | 14919 ft | 332 kts | 36° |
| 2026-05-04 03:22 | 25.40117 | -81.15868 | 14548 ft | 332 kts | 36° |
| 2026-05-04 03:22 | 25.41895 | -81.14236 | 14183 ft | 332 kts | 36° |
| 2026-05-04 03:22 | 25.43697 | -81.12581 | 13808 ft | 332 kts | 36° |
| 2026-05-04 03:23 | 25.45450 | -81.10972 | 13417 ft | 331 kts | 36° |
| 2026-05-04 03:23 | 25.47220 | -81.09347 | 13060 ft | 333 kts | 36° |
| 2026-05-04 03:23 | 25.49024 | -81.07694 | 12758 ft | 338 kts | 36° |
| 2026-05-04 03:23 | 25.50821 | -81.06046 | 12459 ft | 334 kts | 36° |
| 2026-05-04 03:24 | 25.52602 | -81.04410 | 12065 ft | 332 kts | 37° |
| 2026-05-04 03:24 | 25.54379 | -81.02773 | 11669 ft | 332 kts | 37° |
| 2026-05-04 03:24 | 25.56151 | -81.01140 | 11268 ft | 331 kts | 37° |
| 2026-05-04 03:24 | 25.57919 | -80.99510 | 10870 ft | 330 kts | 37° |
| 2026-05-04 03:25 | 25.59682 | -80.97883 | 10465 ft | 327 kts | 37° |
| 2026-05-04 03:25 | 25.61524 | -80.96487 | 10081 ft | 315 kts | 23° |
| 2026-05-04 03:25 | 25.63534 | -80.95665 | 9708 ft | 303 kts | 8° |
| 2026-05-04 03:25 | 25.65595 | -80.95380 | 9353 ft | 297 kts | 360° |
| 2026-05-04 03:26 | 25.67646 | -80.95221 | 9014 ft | 295 kts | 360° |
| 2026-05-04 03:26 | 25.69685 | -80.95057 | 8670 ft | 293 kts | 0° |
| 2026-05-04 03:26 | 25.71711 | -80.94890 | 8320 ft | 291 kts | 0° |
| 2026-05-04 03:26 | 25.73726 | -80.94719 | 7976 ft | 290 kts | 1° |
| 2026-05-04 03:27 | 25.75731 | -80.94548 | 7627 ft | 288 kts | 1° |
| 2026-05-04 03:27 | 25.77728 | -80.94380 | 7289 ft | 287 kts | 1° |
| 2026-05-04 03:27 | 25.79715 | -80.94213 | 7012 ft | 284 kts | 1° |
| 2026-05-04 03:27 | 25.81687 | -80.94048 | 6998 ft | 286 kts | 1° |
| 2026-05-04 03:28 | 25.83673 | -80.93885 | 7005 ft | 287 kts | 1° |
| 2026-05-04 03:28 | 25.85662 | -80.93719 | 7003 ft | 287 kts | 1° |
| 2026-05-04 03:28 | 25.87634 | -80.93339 | 7001 ft | 290 kts | 15° |
| 2026-05-04 03:28 | 25.89480 | -80.92411 | 7005 ft | 293 kts | 26° |
| 2026-05-04 03:29 | 25.91263 | -80.91308 | 7001 ft | 293 kts | 26° |
| 2026-05-04 03:29 | 25.93049 | -80.90205 | 7001 ft | 294 kts | 27° |
| 2026-05-04 03:29 | 25.94841 | -80.89101 | 7003 ft | 295 kts | 27° |
| 2026-05-04 03:29 | 25.96637 | -80.88001 | 7003 ft | 295 kts | 27° |
| 2026-05-04 03:30 | 25.98430 | -80.86902 | 7010 ft | 293 kts | 27° |
| 2026-05-04 03:30 | 26.00066 | -80.85549 | 7007 ft | 295 kts | 44° |
| 2026-05-04 03:30 | 26.01295 | -80.83720 | 6958 ft | 298 kts | 62° |
| 2026-05-04 03:30 | 26.01999 | -80.81570 | 6808 ft | 296 kts | 78° |
| 2026-05-04 03:31 | 26.02432 | -80.79333 | 6669 ft | 296 kts | 78° |
| 2026-05-04 03:31 | 26.02870 | -80.77106 | 6539 ft | 295 kts | 78° |
| 2026-05-04 03:31 | 26.03314 | -80.74886 | 6392 ft | 294 kts | 77° |
| 2026-05-04 03:31 | 26.03761 | -80.72674 | 6257 ft | 293 kts | 77° |
| 2026-05-04 03:32 | 26.04207 | -80.70470 | 6120 ft | 292 kts | 77° |
| 2026-05-04 03:32 | 26.04648 | -80.68271 | 5984 ft | 291 kts | 77° |
| 2026-05-04 03:32 | 26.05088 | -80.66081 | 5852 ft | 290 kts | 77° |
| 2026-05-04 03:32 | 26.05528 | -80.63897 | 5718 ft | 289 kts | 77° |
| 2026-05-04 03:33 | 26.05966 | -80.61720 | 5585 ft | 288 kts | 77° |
| 2026-05-04 03:33 | 26.06400 | -80.59553 | 5448 ft | 287 kts | 77° |
| 2026-05-04 03:33 | 26.06831 | -80.57392 | 5304 ft | 286 kts | 77° |
| 2026-05-04 03:33 | 26.07262 | -80.55235 | 5186 ft | 285 kts | 77° |
| 2026-05-04 03:34 | 26.07690 | -80.53085 | 5055 ft | 285 kts | 79° |
| 2026-05-04 03:34 | 26.07870 | -80.50880 | 4807 ft | 289 kts | 91° |
| 2026-05-04 03:34 | 26.07863 | -80.48643 | 4446 ft | 288 kts | 91° |
| 2026-05-04 03:34 | 26.07851 | -80.46423 | 4087 ft | 286 kts | 91° |
| 2026-05-04 03:35 | 26.07837 | -80.44233 | 3678 ft | 280 kts | 91° |
| 2026-05-04 03:35 | 26.07819 | -80.42105 | 3459 ft | 267 kts | 91° |
| 2026-05-04 03:35 | 26.07803 | -80.40111 | 3371 ft | 250 kts | 91° |
| 2026-05-04 03:35 | 26.07795 | -80.38262 | 3296 ft | 236 kts | 91° |
| 2026-05-04 03:36 | 26.07789 | -80.36480 | 3175 ft | 224 kts | 91° |
| 2026-05-04 03:36 | 26.07782 | -80.34851 | 3101 ft | 198 kts | 91° |
| 2026-05-04 03:36 | 26.07776 | -80.33402 | 2927 ft | 176 kts | 91° |
| 2026-05-04 03:36 | 26.07771 | -80.32095 | 2698 ft | 164 kts | 91° |
| 2026-05-04 03:37 | 26.07765 | -80.30844 | 2486 ft | 160 kts | 91° |
| 2026-05-04 03:37 | 26.07759 | -80.29619 | 2284 ft | 157 kts | 92° |
| 2026-05-04 03:37 | 26.07754 | -80.28412 | 2084 ft | 155 kts | 91° |
| 2026-05-04 03:37 | 26.07748 | -80.27223 | 1886 ft | 153 kts | 90° |
| 2026-05-04 03:38 | 26.07742 | -80.26048 | 1690 ft | 151 kts | 90° |
| 2026-05-04 03:38 | 26.07737 | -80.24886 | 1491 ft | 150 kts | 90° |
| 2026-05-04 03:38 | 26.07731 | -80.23729 | 1295 ft | 149 kts | 90° |
| 2026-05-04 03:38 | 26.07725 | -80.22582 | 1098 ft | 149 kts | 89° |
| 2026-05-04 03:39 | 26.07720 | -80.21434 | 912 ft | 148 kts | 89° |
| 2026-05-04 03:39 | 26.07714 | -80.20290 | 719 ft | 148 kts | 88° |
| 2026-05-04 03:39 | 26.07703 | -80.19151 | 530 ft | 147 kts | 90° |
| 2026-05-04 03:39 | 26.07705 | -80.18016 | 318 ft | 146 kts | 88° |
| 2026-05-04 03:40 | 26.07703 | -80.16888 | 116 ft | 146 kts | 89° |
| 2026-05-04 03:40 | 26.07691 | -80.15793 | 19 ft | 128 kts | 91° |
| 2026-05-04 03:40 | 26.07687 | -80.15122 | 15 ft | 40 kts | 90° |
| 2026-05-04 03:40 | 26.07658 | -80.14988 | 17 ft | 14 kts | 123° |
| 2026-05-04 03:41 | 26.07614 | -80.14914 | 17 ft | 5 kts | 125° |
| 2026-05-04 03:41 | 26.07589 | -80.14875 | 17 ft | 7 kts | 125° |
| 2026-05-04 03:41 | 26.07560 | -80.14832 | 18 ft | 6 kts | 122° |
| 2026-05-04 03:41 | 26.07544 | -80.14804 | 16 ft | 1 kts | 122° |
| 2026-05-04 03:42 | 26.07538 | -80.14793 | 17 ft | 3 kts | 122° |
| 2026-05-04 03:42 | 26.07522 | -80.14772 | 17 ft | 5 kts | 138° |
| 2026-05-04 03:42 | 26.07487 | -80.14771 | 17 ft | 8 kts | 208° |
| 2026-05-04 03:42 | 26.07427 | -80.14832 | 16 ft | 14 kts | 224° |
| 2026-05-04 03:43 | 26.07335 | -80.14855 | 16 ft | 15 kts | 179° |
| 2026-05-04 03:43 | 26.07229 | -80.14853 | 16 ft | 16 kts | 180° |
| 2026-05-04 03:43 | 26.07114 | -80.14855 | 16 ft | 17 kts | 180° |
| 2026-05-04 03:43 | 26.07016 | -80.14784 | 16 ft | 18 kts | 136° |
| 2026-05-04 03:44 | 26.06921 | -80.14687 | 17 ft | 19 kts | 139° |
| 2026-05-04 03:44 | 26.06831 | -80.14599 | 16 ft | 12 kts | 126° |
| 2026-05-04 03:44 | 26.06818 | -80.14510 | 16 ft | 12 kts | 92° |
| 2026-05-04 03:44 | 26.06818 | -80.14412 | 16 ft | 13 kts | 90° |
| 2026-05-04 03:45 | 26.06817 | -80.14313 | 16 ft | 10 kts | 90° |
| 2026-05-04 03:45 | 26.06817 | -80.14229 | 16 ft | 8 kts | 90° |
| 2026-05-04 03:45 | 26.06817 | -80.14225 | 16 ft | 0 kts | 90° |
| 2026-05-04 03:45 | 26.06825 | -80.14214 | 16 ft | 5 kts | 44° |
| 2026-05-04 03:46 | 26.06865 | -80.14211 | 16 ft | 7 kts | 0° |
| 2026-05-04 03:46 | 26.06880 | -80.14211 | 16 ft | 2 kts | 360° |
| 2026-05-04 03:46 | 26.06882 | -80.14211 | 16 ft | 0 kts | 360° |